Terminal Aerodrome Forecast
Issued by NWS

Current Version | Previous Version | Graphics & Text | Print | Product List | Glossary On
Versions: 1 2 3 4 5 6 7 8 9 10 11 12 13 14 15 16 17 18 19 20 21 22 23 24 25 26 27
000
FTUS41 KPBZ 220902 AAA
TAFHLG
TAF AMD
KHLG 220902Z 2209/2306 32005KT 5SM BR OVC008
     FM221100 32005KT P6SM OVC100
     FM221500 32004KT P6SM -SHRA BKN040
     FM222300 35006KT P6SM BKN050=

USA.gov is the U.S. government's official web portal to all federal, state and local government web resources and services.